首页
METAR-TAF:

METAR-TAF

机场 :

杜尚别, 塔吉克斯坦

杜尚别机场

纬度: 38-33N, 经度: 068-47E, 海拔: 803米

当前天气观测

该预报发布于18分钟前的03:00 UTC
风速2节,风向多变
温度 3°C
湿度 48%
气压 1022 hPa
能見度: 8000

METAR: UTDD 200300Z VRB01MPS 8000 NSC 03/M07 Q1022 R09/D NOSIG RMK QFE698/0930

时间: 08:18 (03:18 UTC)

预报

该预报发布于3小时和18分钟前的00:00 UTC
预报有效从20日的 01点(UTC)到 20日的 13点(UTC)
风速4节,风向多变
能見度: 5000
少量云层高于6600英尺
散云层高于15000英尺
短暂存在
从 20日的 01点(UTC)到 20日的 07点(UTC)
能見度: 1000
轻雾, 烟

TAF: UTDD 200000Z 2001/2013 VRB02MPS 5000 FU FEW066 SCT150 TEMPO 2001/2007 1000 BR FU

超过4000个机场的气象观测和天气预报(METAR&TAF报告)。

可查询的气象台以黄色和红色小点在地图上表示。

将鼠标移到小点上方,可查看气象台名称。

然后点击查看天气观测和预报。

如需切换地图:点击带黑十字的绿色按钮放大地图;点击带横线的绿色按钮缩小地图;或者点击绿色箭头查看邻近地区的地图。


METAR-TAF: